WetterOnline ( https://www.wetteronline.de )

Wetter aktuell Langweid

Aktuelles Wetter: Harburg (503m)

6-stündlich | Neueste Meldungen
Ortszeit Temperatur Wetter
Di, 16.07. 20:00 22.1° C leicht bewölkt
Di, 16.07. 14:00 21.6° C fast wolkenlos
Di, 16.07. 8:00 11.5° C leicht bewölkt
Di, 16.07. 2:00 13.0° C fast wolkenlos
Mo, 15.07. 20:00 19.7° C bewölkt
Mo, 15.07. 14:00 20.3° C wolkig
Mo, 15.07. 8:00 14.3° C wolkenlos
Mo, 15.07. 2:00 12.2° C fast wolkenlos
Ortszeit Temperatur Wetter
Di, 16.07. 20:00 22.1° C leicht bewölkt
Di, 16.07. 19:50 22.1° C leicht bewölkt
Di, 16.07. 19:40 22.0° C fast wolkenlos
Di, 16.07. 19:30 22.6° C leicht bewölkt
Di, 16.07. 19:20 22.6° C leicht bewölkt
Di, 16.07. 19:10 22.5° C fast wolkenlos
Di, 16.07. 19:00 22.9° C wolkenlos
Di, 16.07. 18:30 22.6° C wolkenlos
Di, 16.07. 18:00 23.0° C fast wolkenlos
Di, 16.07. 17:30 23.1° C wolkenlos
Di, 16.07. 17:00 22.7° C wolkenlos
Ortszeit Relative Feuchte Sichtweite
Di, 16.07. 20:00 41% 65 km
Di, 16.07. 14:00 55% 30 km
Di, 16.07. 8:00 88% 12 km
Di, 16.07. 2:00 85% 30 km
Mo, 15.07. 20:00 71% 35 km
Mo, 15.07. 14:00 62% 30 km
Mo, 15.07. 8:00 85% 9 km
Mo, 15.07. 2:00 95% 24 km
Ortszeit Relative Feuchte Sichtweite
Di, 16.07. 20:00 41% 65 km
Di, 16.07. 19:50 41% -
Di, 16.07. 19:40 38% -
Di, 16.07. 19:30 39% 50 km
Di, 16.07. 19:20 39% -
Di, 16.07. 19:10 40% -
Di, 16.07. 19:00 39% 65 km
Di, 16.07. 18:30 39% 35 km
Di, 16.07. 18:00 38% 30 km
Di, 16.07. 17:30 40% 35 km
Di, 16.07. 17:00 42% 29 km
Ortszeit Niederschlagsmenge Niederschlagsart
Di, 16.07. 20:00 0.0 l/m2 in 12 Std. -
Di, 16.07. 14:00 0.0 l/m2 in 6 Std. -
Di, 16.07. 8:00 0.0 l/m2 in 12 Std. -
Di, 16.07. 2:00 0.0 l/m2 in 6 Std. -
Mo, 15.07. 20:00 0.3 l/m2 in 12 Std. Regen
Mo, 15.07. 14:00 0.0 l/m2 in 6 Std. -
Mo, 15.07. 8:00 1 l/m2 in 12 Std. -
Mo, 15.07. 2:00 1 l/m2 in 6 Std. Regen
Ortszeit Niederschlagsmenge Niederschlagsart
Di, 16.07. 20:00 0.0 l/m2 in 1 Std. -
Di, 16.07. 19:50 keine Meldung -
Di, 16.07. 19:40 keine Meldung -
Di, 16.07. 19:30 0.0 l/m2 in 1 Std. -
Di, 16.07. 19:20 keine Meldung -
Di, 16.07. 19:10 keine Meldung -
Di, 16.07. 19:00 0.0 l/m2 in 1 Std. -
Di, 16.07. 18:30 0.0 l/m2 in 1 Std. -
Di, 16.07. 18:00 0.0 l/m2 in 1 Std. -
Di, 16.07. 17:30 0.0 l/m2 in 1 Std. -
Di, 16.07. 17:00 0.0 l/m2 in 1 Std. -
Ortszeit Stärke Spitze Richtung
km/h Bft. km/h Grad Sektor
Di, 16.07. 20:00 11 2 32 320° NW
Di, 16.07. 14:00 13 3 31 300° NW
Di, 16.07. 8:00 9 2 24 290° W
Di, 16.07. 2:00 11 2 25 300° NW
Mo, 15.07. 20:00 4 1 18 70° O
Mo, 15.07. 14:00 11 2 22 340° N
Mo, 15.07. 8:00 9 2 22 20° N
Mo, 15.07. 2:00 13 3 30 280° W
Ortszeit Stärke Spitze Richtung
km/h Bft. km/h Grad Sektor
Di, 16.07. 20:00 11 2 25 320° NW
Di, 16.07. 19:50 11 2 - 320° NW
Di, 16.07. 19:40 11 2 - 330° NW
Di, 16.07. 19:30 14 3 25 320° NW
Di, 16.07. 19:20 14 3 - 320° NW
Di, 16.07. 19:10 14 3 - 320° NW
Di, 16.07. 19:00 11 2 29 310° NW
Di, 16.07. 18:30 18 3 29 310° NW
Di, 16.07. 18:00 15 3 31 310° NW
Di, 16.07. 17:30 14 3 32 320° NW
Di, 16.07. 17:00 18 3 32 310° NW
Ortszeit Untergrenze Bedeckung Gattung
total tief tief mittel hoch
Di, 16.07. 20:00 9000 m 3/8 0/8 - - -
Di, 16.07. 14:00 1080 m 1/8 1/8 - - -
Di, 16.07. 8:00 180 m 3/8 3/8 - - -
Di, 16.07. 2:00 10500 m 1/8 0/8 - - -
Mo, 15.07. 20:00 1500 m 7/8 7/8 - - -
Mo, 15.07. 14:00 990 m 6/8 6/8 - - -
Mo, 15.07. 8:00 - 0/8 0/8 - - -
Mo, 15.07. 2:00 750 m 1/8 1/8 - - -
Ortszeit Bedeckungsgrad in Achtel und Wolkenuntergrenze
Di, 16.07. 20:00 3(9000m)
Di, 16.07. 19:50 3(9000m)
Di, 16.07. 19:40 2(9000m)
Di, 16.07. 19:30 4(9000m)
Di, 16.07. 19:20 4(9000m)
Di, 16.07. 19:10 2(9000m)
Di, 16.07. 19:00 keine Wolken
Di, 16.07. 18:30 keine Wolken
Di, 16.07. 18:00 1(9000m)
Di, 16.07. 17:30 2(9000m)
Di, 16.07. 17:00 keine Wolken
Ortszeit Luftdruck NN (hPa) Tendenz (hPa in 3 Std.)
Di, 16.07. 20:00 1015 - 0,4
Di, 16.07. 14:00 1016 - 0,5
Di, 16.07. 8:00 1018 + 0,5
Di, 16.07. 2:00 1018 + 0,6
Mo, 15.07. 20:00 1014 0,0
Mo, 15.07. 14:00 1015 - 0,3
Mo, 15.07. 8:00 1016 + 0,1
Mo, 15.07. 2:00 1016 0,0
Ortszeit Luftdruck NN (hPa) Tendenz (hPa in 3 Std.)
Di, 16.07. 20:00 1015 - 0,4
Di, 16.07. 19:50 1015 keine Meldung
Di, 16.07. 19:40 1014 keine Meldung
Di, 16.07. 19:30 1014 - 0,5
Di, 16.07. 19:20 1014 keine Meldung
Di, 16.07. 19:10 1014 keine Meldung
Di, 16.07. 19:00 1014 - 0,6
Di, 16.07. 18:30 1014 - 0,7
Di, 16.07. 18:00 1014 - 0,6
Di, 16.07. 17:30 1015 - 0,6
Di, 16.07. 17:00 1015 - 0,6
Ortszeit Schneehöhe (cm)
Di, 16.07. 20:00 -
Di, 16.07. 14:00 -
Di, 16.07. 8:00 -
Di, 16.07. 2:00 -
Mo, 15.07. 20:00 -
Mo, 15.07. 14:00 -
Mo, 15.07. 8:00 -
Mo, 15.07. 2:00 -
Ortszeit Schneehöhe (cm)
Di, 16.07. 20:00 -
Di, 16.07. 19:50 -
Di, 16.07. 19:40 -
Di, 16.07. 19:30 -
Di, 16.07. 19:20 -
Di, 16.07. 19:10 -
Di, 16.07. 19:00 -
Di, 16.07. 18:30 -
Di, 16.07. 18:00 -
Di, 16.07. 17:30 -
Di, 16.07. 17:00 -
Link zu dieser Seite / Seite empfehlen

Das Wetter in ...